DLH26M BGGH-EDDP

Flight info

Callsign DLH26M
Flight time 4h 28m
Altitude 28000
Route EVULO1A EVULO DCT 64N039W 63N028W 62N018W DCT ATSIX/N0500F280 DCT ADASI DCT WIK DCT OVDAN DCT REKNA DCT GREFI DCT GASTU DCT POVEL Y800 DESAR DCT UPLEG UPLEG3N
Aircraft B789/H-SDE1E2E3FGHIJ2J3J4J5M1RWXY/LB1D1

Departure

Time 2026-04-25 18:27
Airport Nuuk International Airport (BGGH)

Arrival

Time 2026-04-25 22:55
Airport Leipzig/Halle Airport (EDDP)
Time Latitude Longitude Altitude Speed Heading
2026-04-25 18:15 64.18544 -51.67835 293 ft 0 kts 141°
2026-04-25 18:21 64.18549 -51.67845 299 ft 2 kts 128°
2026-04-25 18:21 64.18556 -51.67878 298 ft 2 kts 97°
2026-04-25 18:21 64.18554 -51.67915 298 ft 2 kts 62°
2026-04-25 18:21 64.18543 -51.67945 298 ft 2 kts 40°
2026-04-25 18:22 64.18535 -51.67958 297 ft 1 kts 28°
2026-04-25 18:22 64.18534 -51.67960 297 ft 0 kts 26°
2026-04-25 18:23 64.18538 -51.67957 297 ft 1 kts 21°
2026-04-25 18:23 64.18555 -51.67946 297 ft 4 kts
2026-04-25 18:23 64.18600 -51.67971 297 ft 9 kts 331°
2026-04-25 18:23 64.18648 -51.68114 298 ft 14 kts 288°
2026-04-25 18:24 64.18600 -51.68288 300 ft 15 kts 197°
2026-04-25 18:24 64.18480 -51.68374 298 ft 22 kts 198°
2026-04-25 18:24 64.18324 -51.68493 296 ft 24 kts 198°
2026-04-25 18:24 64.18227 -51.68497 297 ft 10 kts 171°
2026-04-25 18:25 64.18171 -51.68524 293 ft 6 kts 215°
2026-04-25 18:25 64.18163 -51.68576 293 ft 3 kts 271°
2026-04-25 18:25 64.18167 -51.68598 293 ft 1 kts 298°
2026-04-25 18:25 64.18171 -51.68606 293 ft 1 kts 317°
2026-04-25 18:26 64.18178 -51.68610 297 ft 2 kts 350°
2026-04-25 18:26 64.18184 -51.68606 296 ft 0 kts 17°
2026-04-25 18:26 64.18329 -51.68494 296 ft 55 kts 19°
2026-04-25 18:27 64.18914 -51.68056 299 ft 120 kts 17°
2026-04-25 18:27 64.19840 -51.67326 567 ft 148 kts 23°
2026-04-25 18:27 64.20818 -51.66535 1419 ft 151 kts 17°
2026-04-25 18:27 64.21771 -51.65587 2186 ft 164 kts 38°
2026-04-25 18:28 64.22230 -51.62915 2393 ft 208 kts 83°
2026-04-25 18:28 64.22069 -51.59464 2994 ft 225 kts 91°
2026-04-25 18:28 64.22012 -51.55645 3382 ft 252 kts 83°
2026-04-25 18:29 64.22817 -51.47914 5466 ft 251 kts 69°
2026-04-25 18:29 64.23317 -51.43997 6380 ft 259 kts 70°
2026-04-25 18:30 64.24731 -51.31567 8940 ft 279 kts 72°
2026-04-25 18:30 64.25237 -51.27188 9791 ft 287 kts 72°
2026-04-25 18:30 64.25754 -51.22669 10365 ft 304 kts 73°
2026-04-25 18:30 64.26317 -51.17742 10572 ft 332 kts 73°
2026-04-25 18:31 64.26922 -51.12410 10739 ft 359 kts 73°
2026-04-25 18:31 64.27567 -51.06685 11131 ft 375 kts 73°
2026-04-25 18:31 64.28223 -51.00839 12010 ft 380 kts 73°
2026-04-25 18:31 64.28892 -50.94889 12720 ft 388 kts 74°
2026-04-25 18:32 64.29569 -50.88832 13441 ft 393 kts 74°
2026-04-25 18:32 64.30244 -50.82752 14170 ft 400 kts 74°
2026-04-25 18:32 64.30937 -50.76485 14824 ft 406 kts 74°
2026-04-25 18:32 64.31637 -50.70147 15450 ft 412 kts 74°
2026-04-25 18:33 64.32344 -50.63704 16134 ft 417 kts 74°
2026-04-25 18:33 64.33060 -50.57158 16756 ft 423 kts 74°
2026-04-25 18:33 64.33781 -50.50532 17392 ft 429 kts 74°
2026-04-25 18:33 64.34507 -50.43810 17994 ft 435 kts 74°
2026-04-25 18:34 64.35241 -50.37000 18587 ft 440 kts 74°
2026-04-25 18:34 64.35981 -50.30109 19200 ft 444 kts 74°
2026-04-25 18:34 64.36723 -50.23152 19752 ft 448 kts 74°
2026-04-25 18:34 64.37457 -50.16228 20315 ft 451 kts 74°
2026-04-25 18:35 64.38202 -50.09156 20846 ft 456 kts 75°
2026-04-25 18:35 64.38597 -50.01850 21350 ft 461 kts 89°
2026-04-25 18:35 64.38627 -49.94417 21820 ft 465 kts 89°
2026-04-25 18:35 64.38631 -49.86933 22382 ft 468 kts 90°
2026-04-25 18:36 64.38630 -49.79358 22813 ft 473 kts 90°
2026-04-25 18:36 64.38642 -49.71730 23342 ft 476 kts 90°
2026-04-25 18:36 64.38654 -49.64040 23780 ft 480 kts 90°
2026-04-25 18:36 64.38653 -49.56404 24164 ft 483 kts 90°
2026-04-25 18:37 64.38645 -49.48520 24550 ft 486 kts 90°
2026-04-25 18:37 64.38636 -49.40794 24921 ft 489 kts 90°
2026-04-25 18:37 64.38626 -49.32905 25287 ft 492 kts 91°
2026-04-25 18:37 64.38610 -49.24999 25775 ft 492 kts 91°
2026-04-25 18:38 64.38588 -49.17109 26250 ft 491 kts 91°
2026-04-25 18:38 64.38564 -49.09230 26765 ft 490 kts 91°
2026-04-25 18:38 64.38534 -49.01360 27237 ft 490 kts 92°
2026-04-25 18:38 64.38500 -48.93491 27758 ft 489 kts 92°
2026-04-25 18:39 64.38462 -48.85628 28037 ft 493 kts 92°
2026-04-25 18:39 64.38419 -48.77624 28038 ft 504 kts 92°
2026-04-25 18:39 64.38319 -48.61100 28039 ft 524 kts 92°
2026-04-25 18:40 64.38192 -48.44077 28032 ft 542 kts 93°
2026-04-25 18:40 64.38045 -48.26484 28033 ft 550 kts 93°
2026-04-25 18:41 64.37872 -48.08815 28010 ft 548 kts 93°
2026-04-25 18:41 64.37683 -47.91272 28016 ft 546 kts 93°
2026-04-25 18:42 64.37507 -47.76689 28018 ft 547 kts 93°
2026-04-25 18:42 64.37239 -47.56314 28009 ft 545 kts 93°
2026-04-25 18:43 64.36987 -47.38830 28004 ft 546 kts 94°
2026-04-25 18:43 64.36711 -47.21272 28004 ft 547 kts 94°
2026-04-25 18:44 64.36415 -47.03718 27998 ft 544 kts 94°
2026-04-25 18:44 64.36261 -46.95001 27994 ft 542 kts 94°
2026-04-25 18:44 64.36102 -46.86319 27992 ft 543 kts 94°
2026-04-25 18:45 64.35938 -46.77726 27994 ft 543 kts 94°
2026-04-25 18:45 64.35768 -46.68997 27995 ft 543 kts 94°
2026-04-25 18:45 64.35593 -46.60293 27995 ft 544 kts 95°
2026-04-25 18:45 64.35412 -46.51574 27996 ft 544 kts 95°
2026-04-25 18:46 64.35227 -46.42877 27996 ft 544 kts 95°
2026-04-25 18:46 64.35036 -46.34157 27996 ft 544 kts 95°
2026-04-25 18:46 64.34840 -46.25449 27997 ft 544 kts 95°
2026-04-25 18:46 64.34639 -46.16726 28009 ft 545 kts 95°
2026-04-25 18:47 64.34218 -45.99264 27985 ft 541 kts 95°
2026-04-25 18:47 64.34005 -45.90655 27992 ft 537 kts 95°
2026-04-25 18:47 64.33788 -45.82146 27992 ft 539 kts 95°
2026-04-25 18:48 64.33562 -45.73524 27994 ft 539 kts 95°
2026-04-25 18:48 64.33332 -45.64901 27996 ft 538 kts 95°
2026-04-25 18:48 64.33098 -45.56292 27998 ft 538 kts 96°
2026-04-25 18:48 64.32859 -45.47709 27996 ft 537 kts 96°
2026-04-25 18:49 64.32614 -45.39097 27996 ft 538 kts 96°
2026-04-25 18:49 64.32363 -45.30467 28000 ft 539 kts 96°
2026-04-25 18:49 64.32108 -45.21843 27999 ft 540 kts 96°
2026-04-25 18:49 64.31847 -45.13207 28001 ft 540 kts 96°
2026-04-25 18:50 64.31314 -44.96071 27999 ft 539 kts 96°
2026-04-25 18:50 64.31039 -44.87474 27997 ft 538 kts 96°
2026-04-25 18:50 64.30759 -44.78889 27990 ft 537 kts 96°
2026-04-25 18:51 64.30474 -44.70305 27981 ft 538 kts 96°
2026-04-25 18:51 64.30283 -44.64610 27986 ft 538 kts 96°
2026-04-25 18:51 64.29890 -44.53125 27984 ft 537 kts 97°
2026-04-25 18:51 64.29587 -44.44544 27986 ft 537 kts 97°
2026-04-25 18:52 64.29285 -44.35971 27977 ft 537 kts 97°
2026-04-25 18:52 64.28975 -44.27387 27973 ft 538 kts 97°
2026-04-25 18:52 64.28663 -44.18913 27976 ft 539 kts 97°
2026-04-25 18:52 64.28342 -44.10328 27976 ft 539 kts 97°
2026-04-25 18:53 64.28016 -44.01708 27972 ft 540 kts 97°
2026-04-25 18:53 64.27683 -43.93090 27961 ft 538 kts 97°
2026-04-25 18:53 64.27349 -43.84553 27960 ft 534 kts 97°
2026-04-25 18:53 64.27013 -43.76037 27975 ft 535 kts 97°
2026-04-25 18:54 64.26317 -43.58948 27963 ft 537 kts 97°
2026-04-25 18:54 64.25964 -43.50426 27953 ft 536 kts 97°
2026-04-25 18:54 64.25606 -43.41893 27951 ft 535 kts 97°
2026-04-25 18:55 64.25243 -43.33379 27954 ft 535 kts 98°
2026-04-25 18:55 64.24874 -43.24876 27939 ft 535 kts 98°
2026-04-25 18:55 64.24500 -43.16356 27946 ft 536 kts 98°
2026-04-25 18:55 64.24122 -43.07833 27930 ft 536 kts 98°
2026-04-25 18:56 64.23738 -42.99298 27934 ft 537 kts 98°
2026-04-25 18:56 64.23353 -42.90877 27916 ft 536 kts 98°
2026-04-25 18:56 64.22963 -42.82423 27921 ft 530 kts 98°
2026-04-25 18:56 64.22570 -42.74012 27920 ft 530 kts 98°
2026-04-25 18:57 64.22169 -42.65574 27904 ft 531 kts 98°
2026-04-25 18:57 64.21763 -42.57143 27904 ft 530 kts 98°
2026-04-25 18:57 64.21357 -42.48737 27914 ft 530 kts 98°
2026-04-25 18:57 64.21083 -42.43168 27914 ft 530 kts 98°
2026-04-25 18:58 64.20525 -42.31935 27899 ft 529 kts 98°
2026-04-25 18:58 64.19673 -42.15120 27912 ft 531 kts 98°
2026-04-25 18:58 64.19245 -42.06811 27914 ft 532 kts 98°
2026-04-25 18:59 64.18362 -41.89971 27902 ft 531 kts 98°
2026-04-25 18:59 64.17470 -41.73303 27928 ft 524 kts 98°
2026-04-25 19:00 64.16559 -41.56694 27932 ft 525 kts 98°
2026-04-25 19:00 64.16097 -41.48394 27946 ft 525 kts 99°
2026-04-25 19:01 64.15161 -41.31810 27956 ft 525 kts 99°
2026-04-25 19:01 64.14685 -41.23528 27957 ft 527 kts 99°
2026-04-25 19:01 64.14204 -41.15272 27962 ft 533 kts 99°
2026-04-25 19:01 64.13708 -41.06794 27962 ft 540 kts 99°
2026-04-25 19:02 64.12692 -40.89676 27957 ft 543 kts 99°
2026-04-25 19:02 64.12174 -40.81126 27958 ft 540 kts 99°
2026-04-25 19:02 64.11657 -40.72643 27962 ft 540 kts 99°
2026-04-25 19:03 64.10780 -40.58467 27974 ft 541 kts 99°
2026-04-25 19:03 64.10067 -40.47090 27978 ft 540 kts 100°
2026-04-25 19:03 64.09528 -40.38588 27976 ft 540 kts 100°
2026-04-25 19:04 64.08444 -40.21753 27986 ft 538 kts 100°
2026-04-25 19:04 64.07892 -40.13291 27996 ft 539 kts 100°
2026-04-25 19:05 64.06767 -39.96294 27987 ft 541 kts 101°
2026-04-25 19:05 64.05626 -39.79339 27982 ft 540 kts 101°
2026-04-25 19:05 64.05045 -39.70846 27984 ft 541 kts 101°
2026-04-25 19:06 64.04459 -39.62367 27983 ft 541 kts 101°
2026-04-25 19:06 64.03277 -39.45413 27989 ft 541 kts 101°
2026-04-25 19:06 64.02685 -39.37049 27989 ft 541 kts 101°
2026-04-25 19:07 64.01471 -39.20127 27986 ft 540 kts 102°
2026-04-25 19:07 64.00859 -39.11680 27986 ft 540 kts 102°
2026-04-25 19:08 63.99320 -38.86201 27999 ft 545 kts 99°
2026-04-25 19:09 63.97976 -38.60852 27985 ft 539 kts 99°
2026-04-25 19:09 63.97677 -38.55140 27985 ft 538 kts 99°
2026-04-25 19:09 63.96602 -38.35505 27988 ft 538 kts 99°
2026-04-25 19:10 63.96138 -38.27066 27986 ft 538 kts 99°
2026-04-25 19:10 63.95670 -38.18611 27999 ft 539 kts 99°
2026-04-25 19:10 63.95191 -38.10147 27995 ft 539 kts 99°
2026-04-25 19:10 63.94706 -38.01691 27996 ft 540 kts 100°
2026-04-25 19:11 63.94218 -37.93221 28001 ft 540 kts 100°
2026-04-25 19:11 63.93236 -37.76391 27981 ft 541 kts 100°
2026-04-25 19:11 63.92731 -37.67951 27990 ft 536 kts 100°
2026-04-25 19:12 63.92229 -37.59587 27989 ft 534 kts 100°
2026-04-25 19:12 63.91721 -37.51216 27990 ft 536 kts 100°
2026-04-25 19:12 63.91208 -37.42838 27990 ft 535 kts 101°
2026-04-25 19:12 63.90692 -37.34482 27991 ft 529 kts 101°
2026-04-25 19:13 63.90186 -37.26338 27988 ft 515 kts 101°
2026-04-25 19:13 63.89679 -37.18313 27986 ft 512 kts 101°
2026-04-25 19:13 63.89175 -37.10444 27992 ft 511 kts 101°
2026-04-25 19:13 63.88664 -37.02476 27987 ft 511 kts 101°
2026-04-25 19:14 63.88149 -36.94491 27990 ft 511 kts 101°
2026-04-25 19:14 63.87973 -36.91793 27989 ft 511 kts 101°
2026-04-25 19:14 63.87102 -36.78549 27991 ft 511 kts 101°
2026-04-25 19:14 63.86573 -36.70591 27963 ft 511 kts 101°
2026-04-25 19:15 63.86041 -36.62641 27991 ft 509 kts 101°
2026-04-25 19:15 63.85506 -36.54722 27991 ft 508 kts 102°
2026-04-25 19:15 63.84972 -36.46906 27986 ft 509 kts 102°
2026-04-25 19:15 63.84427 -36.38977 27988 ft 509 kts 102°
2026-04-25 19:16 63.83877 -36.31041 27990 ft 510 kts 102°
2026-04-25 19:16 63.83323 -36.23108 27992 ft 509 kts 102°
2026-04-25 19:16 63.82765 -36.15195 27996 ft 509 kts 102°
2026-04-25 19:16 63.82203 -36.07288 27994 ft 509 kts 102°
2026-04-25 19:17 63.81636 -35.99372 27992 ft 509 kts 102°
2026-04-25 19:17 63.81066 -35.91468 27994 ft 509 kts 102°
2026-04-25 19:17 63.80492 -35.83586 27992 ft 508 kts 102°
2026-04-25 19:17 63.79912 -35.75676 27990 ft 508 kts 102°
2026-04-25 19:18 63.79329 -35.67797 27991 ft 508 kts 102°
2026-04-25 19:18 63.78750 -35.60022 27975 ft 507 kts 102°
2026-04-25 19:18 63.78161 -35.52173 28003 ft 508 kts 102°
2026-04-25 19:19 63.76963 -35.36398 28002 ft 509 kts 102°
2026-04-25 19:19 63.75751 -35.20668 27998 ft 507 kts 103°
2026-04-25 19:19 63.75346 -35.15470 27999 ft 507 kts 103°
2026-04-25 19:20 63.74523 -35.04983 28001 ft 508 kts 103°
2026-04-25 19:20 63.73284 -34.89362 28007 ft 508 kts 103°
2026-04-25 19:21 63.72019 -34.73667 28006 ft 508 kts 103°
2026-04-25 19:21 63.70091 -34.50156 28001 ft 508 kts 103°
2026-04-25 19:22 63.68775 -34.34395 28013 ft 513 kts 103°
2026-04-25 19:23 63.66779 -34.10879 28003 ft 512 kts 104°
2026-04-25 19:23 63.64734 -33.87288 28008 ft 512 kts 104°
2026-04-25 19:24 63.63349 -33.71568 28013 ft 512 kts 104°
2026-04-25 19:25 63.60549 -33.40416 27999 ft 504 kts 104°
2026-04-25 19:25 63.59840 -33.32673 27998 ft 506 kts 104°
2026-04-25 19:25 63.59128 -33.24939 27999 ft 506 kts 104°
2026-04-25 19:26 63.58414 -33.17206 27996 ft 505 kts 104°
2026-04-25 19:26 63.57696 -33.09495 28000 ft 505 kts 104°
2026-04-25 19:26 63.56973 -33.01785 27999 ft 504 kts 104°
2026-04-25 19:26 63.56247 -32.94082 28002 ft 504 kts 104°
2026-04-25 19:27 63.55032 -32.81302 27998 ft 505 kts 104°
2026-04-25 19:27 63.53304 -32.63342 28007 ft 507 kts 105°
2026-04-25 19:28 63.51787 -32.47804 28010 ft 516 kts 105°
2026-04-25 19:28 63.50241 -32.32108 28015 ft 519 kts 105°
2026-04-25 19:29 63.48655 -32.16250 28022 ft 522 kts 105°
2026-04-25 19:29 63.47065 -32.00518 28024 ft 522 kts 105°
2026-04-25 19:30 63.45443 -31.84675 28023 ft 523 kts 105°
2026-04-25 19:30 63.43803 -31.68830 28024 ft 523 kts 105°
2026-04-25 19:31 63.42149 -31.53046 28019 ft 521 kts 105°
2026-04-25 19:31 63.40491 -31.37401 28008 ft 513 kts 105°
2026-04-25 19:32 63.38836 -31.21975 28012 ft 517 kts 106°
2026-04-25 19:32 63.37701 -31.11488 28015 ft 521 kts 106°
2026-04-25 19:33 63.35421 -30.90652 28012 ft 520 kts 106°
2026-04-25 19:33 63.33685 -30.75003 28013 ft 521 kts 106°
2026-04-25 19:34 63.31946 -30.59481 28022 ft 521 kts 106°
2026-04-25 19:34 63.30173 -30.43847 28016 ft 519 kts 106°
2026-04-25 19:35 63.28410 -30.28442 28015 ft 514 kts 107°
2026-04-25 19:35 63.26627 -30.13056 28022 ft 518 kts 107°
2026-04-25 19:36 63.24814 -29.97545 28018 ft 518 kts 107°
2026-04-25 19:36 63.22997 -29.82192 28019 ft 518 kts 107°
2026-04-25 19:37 63.21150 -29.66729 28027 ft 519 kts 107°
2026-04-25 19:37 63.19285 -29.51277 28021 ft 519 kts 107°
2026-04-25 19:38 63.17412 -29.35913 28015 ft 513 kts 107°
2026-04-25 19:38 63.15543 -29.20747 28015 ft 514 kts 107°
2026-04-25 19:39 63.13646 -29.05500 28026 ft 517 kts 107°
2026-04-25 19:39 63.11723 -28.90184 28037 ft 516 kts 107°
2026-04-25 19:40 63.09781 -28.74897 28010 ft 516 kts 108°
2026-04-25 19:40 63.07834 -28.59676 28032 ft 515 kts 108°
2026-04-25 19:41 63.05873 -28.44552 28021 ft 515 kts 108°
2026-04-25 19:41 63.04891 -28.36993 28153 ft 509 kts 108°
2026-04-25 19:41 63.04560 -28.34454 28246 ft 508 kts 108°
2026-04-25 19:42 63.02926 -28.22030 28673 ft 510 kts 108°
2026-04-25 19:42 63.01933 -28.14525 28944 ft 510 kts 108°
2026-04-25 19:42 63.00000 -27.99472 29013 ft 510 kts 103°
2026-04-25 19:43 62.99012 -27.84035 29014 ft 510 kts 100°
2026-04-25 19:43 62.98028 -27.68711 29013 ft 509 kts 99°
2026-04-25 19:44 62.97039 -27.53297 29013 ft 509 kts 100°
2026-04-25 19:44 62.96022 -27.37913 29013 ft 507 kts 100°
2026-04-25 19:45 62.95001 -27.22617 29021 ft 504 kts 100°
2026-04-25 19:45 62.93966 -27.07434 29022 ft 508 kts 100°
2026-04-25 19:46 62.92907 -26.92113 29021 ft 507 kts 100°
2026-04-25 19:46 62.91832 -26.76830 29022 ft 506 kts 100°
2026-04-25 19:47 62.90743 -26.61577 29020 ft 506 kts 101°
2026-04-25 19:47 62.89637 -26.46342 29021 ft 507 kts 101°
2026-04-25 19:48 62.88520 -26.31185 29023 ft 507 kts 101°
2026-04-25 19:48 62.87376 -26.15902 29024 ft 509 kts 101°
2026-04-25 19:49 62.86602 -26.05698 29025 ft 504 kts 101°
2026-04-25 19:49 62.85057 -25.85605 29026 ft 503 kts 101°
2026-04-25 19:50 62.83279 -25.62966 29026 ft 503 kts 101°
2026-04-25 19:51 62.82074 -25.47896 29033 ft 503 kts 101°
2026-04-25 19:51 62.80861 -25.32932 29027 ft 503 kts 101°
2026-04-25 19:52 62.79618 -25.17818 29030 ft 506 kts 102°
2026-04-25 19:52 62.78358 -25.02703 29037 ft 506 kts 102°
2026-04-25 19:53 62.77081 -24.87593 29040 ft 505 kts 102°
2026-04-25 19:53 62.75803 -24.72650 29037 ft 499 kts 102°
2026-04-25 19:54 62.74508 -24.57740 29040 ft 500 kts 102°
2026-04-25 19:54 62.73208 -24.42948 29036 ft 500 kts 102°
2026-04-25 19:55 62.71875 -24.27978 29040 ft 502 kts 102°
2026-04-25 19:55 62.70527 -24.13038 29043 ft 503 kts 102°
2026-04-25 19:56 62.69164 -23.98116 29051 ft 502 kts 102°
2026-04-25 19:56 62.67785 -23.83202 29049 ft 502 kts 103°
2026-04-25 19:57 62.66391 -23.68302 29052 ft 503 kts 103°
2026-04-25 19:57 62.64981 -23.53434 29051 ft 502 kts 103°
2026-04-25 19:58 62.63564 -23.38654 29049 ft 502 kts 103°
2026-04-25 19:58 62.62120 -23.23792 29056 ft 503 kts 103°
2026-04-25 19:59 62.60664 -23.08961 29059 ft 502 kts 103°
2026-04-25 19:59 62.59191 -22.94139 29057 ft 501 kts 103°
2026-04-25 20:00 62.57703 -22.79342 29057 ft 503 kts 104°
2026-04-25 20:00 62.56211 -22.64670 29050 ft 502 kts 104°
2026-04-25 20:01 62.53917 -22.42422 29069 ft 500 kts 104°
2026-04-25 20:01 62.52380 -22.27734 29072 ft 499 kts 104°
2026-04-25 20:02 62.50831 -22.13090 29068 ft 501 kts 104°
2026-04-25 20:02 62.49266 -21.98447 29069 ft 499 kts 104°
2026-04-25 20:03 62.47696 -21.83912 29080 ft 500 kts 104°
2026-04-25 20:03 62.46099 -21.69293 29070 ft 503 kts 104°
2026-04-25 20:04 62.44479 -21.54615 29064 ft 495 kts 104°
2026-04-25 20:04 62.42876 -21.40241 29067 ft 491 kts 104°
2026-04-25 20:05 62.41277 -21.26074 29073 ft 487 kts 104°
2026-04-25 20:05 62.39674 -21.11965 29078 ft 483 kts 105°
2026-04-25 20:06 62.38053 -20.97889 29076 ft 487 kts 105°
2026-04-25 20:06 62.36421 -20.83813 29092 ft 484 kts 105°
2026-04-25 20:07 62.34765 -20.69699 29097 ft 487 kts 105°
2026-04-25 20:07 62.33109 -20.55694 29093 ft 487 kts 105°
2026-04-25 20:08 62.31418 -20.41552 29104 ft 486 kts 106°
2026-04-25 20:08 62.29720 -20.27474 29106 ft 490 kts 106°
2026-04-25 20:09 62.28007 -20.13411 29113 ft 485 kts 106°
2026-04-25 20:09 62.26289 -19.99440 29092 ft 482 kts 106°
2026-04-25 20:10 62.24572 -19.85606 29095 ft 485 kts 105°
2026-04-25 20:10 62.22820 -19.71603 29106 ft 484 kts 106°
2026-04-25 20:11 62.21055 -19.57653 29106 ft 488 kts 106°
2026-04-25 20:11 62.19281 -19.43731 29109 ft 482 kts 107°
2026-04-25 20:12 62.17483 -19.29779 29115 ft 487 kts 107°
2026-04-25 20:12 62.16291 -19.20584 29118 ft 483 kts 106°
2026-04-25 20:13 62.13858 -19.01979 29122 ft 489 kts 107°
2026-04-25 20:13 62.12019 -18.88070 29120 ft 485 kts 107°
2026-04-25 20:14 62.10182 -18.74285 29129 ft 480 kts 107°
2026-04-25 20:14 62.08643 -18.62838 29132 ft 485 kts 107°
2026-04-25 20:15 62.06783 -18.49107 29129 ft 481 kts 107°
2026-04-25 20:15 62.04903 -18.35343 29137 ft 484 kts 107°
2026-04-25 20:16 62.02702 -18.19391 29125 ft 486 kts 107°
2026-04-25 20:16 62.01092 -18.07788 29141 ft 486 kts 108°
2026-04-25 20:17 61.98838 -17.94417 29146 ft 485 kts 115°
2026-04-25 20:17 61.96116 -17.81258 29147 ft 482 kts 114°
2026-04-25 20:18 61.93424 -17.68390 29152 ft 477 kts 115°
2026-04-25 20:18 61.90703 -17.55452 29153 ft 479 kts 115°
2026-04-25 20:19 61.87979 -17.42576 29154 ft 478 kts 115°
2026-04-25 20:19 61.85221 -17.29621 29151 ft 486 kts 115°
2026-04-25 20:20 61.82506 -17.16955 29151 ft 481 kts 115°
2026-04-25 20:20 61.79718 -17.04020 29154 ft 485 kts 115°
2026-04-25 20:21 61.76909 -16.91072 29168 ft 481 kts 115°
2026-04-25 20:21 61.74128 -16.78323 29163 ft 480 kts 115°
2026-04-25 20:22 61.71787 -16.67660 29171 ft 481 kts 116°
2026-04-25 20:22 61.68499 -16.52765 29150 ft 480 kts 116°
2026-04-25 20:23 61.65664 -16.40010 29167 ft 487 kts 116°
2026-04-25 20:23 61.62800 -16.27198 29171 ft 483 kts 116°
2026-04-25 20:24 61.59922 -16.14402 29163 ft 484 kts 116°
2026-04-25 20:24 61.57033 -16.01639 29173 ft 481 kts 116°
2026-04-25 20:25 61.54159 -15.89004 29184 ft 480 kts 116°
2026-04-25 20:25 61.51267 -15.76375 29183 ft 480 kts 116°
2026-04-25 20:26 61.48385 -15.63862 29174 ft 481 kts 117°
2026-04-25 20:26 61.45446 -15.51178 29179 ft 485 kts 117°
2026-04-25 20:27 61.42499 -15.38530 29180 ft 484 kts 117°
2026-04-25 20:27 61.39540 -15.25907 29186 ft 485 kts 117°
2026-04-25 20:28 61.36568 -15.13302 29191 ft 480 kts 117°
2026-04-25 20:28 61.33658 -15.01030 29184 ft 476 kts 117°
2026-04-25 20:29 61.30712 -14.88676 29190 ft 476 kts 118°
2026-04-25 20:29 61.27757 -14.76356 29188 ft 475 kts 118°
2026-04-25 20:30 61.24791 -14.64061 29192 ft 476 kts 118°
2026-04-25 20:30 61.21814 -14.51786 29199 ft 476 kts 118°
2026-04-25 20:31 61.18828 -14.39544 29198 ft 476 kts 118°
2026-04-25 20:31 61.15853 -14.27416 29194 ft 474 kts 118°
2026-04-25 20:32 61.12884 -14.15376 29196 ft 470 kts 118°
2026-04-25 20:32 61.09899 -14.03342 29197 ft 470 kts 118°
2026-04-25 20:33 61.06901 -13.91317 29191 ft 474 kts 119°
2026-04-25 20:33 61.04382 -13.81266 29193 ft 473 kts 119°
2026-04-25 20:34 61.00833 -13.67182 29197 ft 473 kts 119°
2026-04-25 20:34 60.97784 -13.55154 29196 ft 474 kts 119°
2026-04-25 20:35 60.94725 -13.43151 29195 ft 474 kts 119°
2026-04-25 20:35 60.91675 -13.31244 29199 ft 474 kts 119°
2026-04-25 20:36 60.88591 -13.19274 29206 ft 474 kts 120°
2026-04-25 20:36 60.85493 -13.07313 29196 ft 478 kts 120°
2026-04-25 20:37 60.82359 -12.95276 29210 ft 477 kts 120°
2026-04-25 20:37 60.79222 -12.83292 29201 ft 477 kts 120°
2026-04-25 20:38 60.76074 -12.71332 29202 ft 477 kts 120°
2026-04-25 20:38 60.72939 -12.59484 29215 ft 474 kts 120°
2026-04-25 20:39 60.69823 -12.47767 29211 ft 470 kts 120°
2026-04-25 20:39 60.67219 -12.38030 29215 ft 470 kts 120°
2026-04-25 20:40 60.63549 -12.24367 29214 ft 475 kts 121°
2026-04-25 20:40 60.60361 -12.12564 29211 ft 474 kts 121°
2026-04-25 20:41 60.57173 -12.00829 29211 ft 474 kts 121°
2026-04-25 20:41 60.53996 -11.89191 29228 ft 474 kts 121°
2026-04-25 20:42 60.50787 -11.77498 29220 ft 472 kts 121°
2026-04-25 20:42 60.47598 -11.65936 29227 ft 470 kts 121°
2026-04-25 20:43 60.44395 -11.54381 29227 ft 470 kts 121°
2026-04-25 20:43 60.41168 -11.42804 29233 ft 475 kts 122°
2026-04-25 20:44 60.37919 -11.31198 29232 ft 473 kts 122°
2026-04-25 20:44 60.34686 -11.19718 29231 ft 473 kts 122°
2026-04-25 20:45 60.31427 -11.08197 29216 ft 472 kts 122°
2026-04-25 20:45 60.28161 -10.96711 29224 ft 471 kts 122°
2026-04-25 20:46 60.24894 -10.85280 29228 ft 472 kts 122°
2026-04-25 20:46 60.21610 -10.73846 29197 ft 472 kts 122°
2026-04-25 20:47 60.18325 -10.62469 29241 ft 475 kts 122°
2026-04-25 20:47 60.15005 -10.51022 29239 ft 474 kts 123°
2026-04-25 20:48 60.11683 -10.39630 29248 ft 474 kts 123°
2026-04-25 20:48 60.08348 -10.28247 29243 ft 474 kts 123°
2026-04-25 20:49 60.05001 -10.16879 29237 ft 474 kts 123°
2026-04-25 20:49 60.01663 -10.05598 29244 ft 474 kts 123°
2026-04-25 20:50 59.98795 -9.93717 29238 ft 478 kts 114°
2026-04-25 20:50 59.96400 -9.81283 29242 ft 480 kts 114°
2026-04-25 20:51 59.93998 -9.68884 29245 ft 478 kts 114°
2026-04-25 20:51 59.91588 -9.56539 29244 ft 477 kts 114°
2026-04-25 20:52 59.89579 -9.46293 29249 ft 478 kts 114°
2026-04-25 20:52 59.86730 -9.31870 29252 ft 480 kts 114°
2026-04-25 20:53 59.84293 -9.19602 29238 ft 481 kts 115°
2026-04-25 20:53 59.81814 -9.07212 29240 ft 481 kts 115°
2026-04-25 20:54 59.79332 -8.94872 29251 ft 481 kts 115°
2026-04-25 20:54 59.76862 -8.82672 29234 ft 482 kts 115°
2026-04-25 20:55 59.75603 -8.76490 29353 ft 483 kts 115°
2026-04-25 20:55 59.74378 -8.70471 30283 ft 472 kts 115°
2026-04-25 20:55 59.73147 -8.64447 30730 ft 471 kts 115°
2026-04-25 20:55 59.71913 -8.58448 31135 ft 470 kts 115°
2026-04-25 20:56 59.70681 -8.52469 31535 ft 468 kts 115°
2026-04-25 20:56 59.69450 -8.46499 31847 ft 469 kts 116°
2026-04-25 20:56 59.68215 -8.40521 32246 ft 468 kts 116°
2026-04-25 20:56 59.66977 -8.34565 32668 ft 467 kts 116°
2026-04-25 20:57 59.65743 -8.28644 33068 ft 465 kts 116°
2026-04-25 20:57 59.64510 -8.22739 33485 ft 464 kts 116°
2026-04-25 20:57 59.63279 -8.16858 33889 ft 463 kts 116°
2026-04-25 20:57 59.62066 -8.11085 34277 ft 461 kts 116°
2026-04-25 20:58 59.60833 -8.05232 34574 ft 461 kts 116°
2026-04-25 20:58 59.59596 -7.99377 34823 ft 462 kts 116°
2026-04-25 20:58 59.58353 -7.93508 35079 ft 463 kts 116°
2026-04-25 20:58 59.57108 -7.87648 35328 ft 464 kts 116°
2026-04-25 20:59 59.55858 -7.81783 35570 ft 464 kts 116°
2026-04-25 20:59 59.54602 -7.75903 35785 ft 466 kts 116°
2026-04-25 20:59 59.53340 -7.70015 36041 ft 467 kts 116°
2026-04-25 20:59 59.52074 -7.64120 36256 ft 468 kts 116°
2026-04-25 21:00 59.50380 -7.56265 36249 ft 471 kts 116°
2026-04-25 21:01 59.45701 -7.34712 36246 ft 466 kts 116°
2026-04-25 21:01 59.43138 -7.22999 36252 ft 467 kts 116°
2026-04-25 21:02 59.40555 -7.11270 36242 ft 471 kts 117°
2026-04-25 21:02 59.37954 -6.99509 36256 ft 473 kts 117°
2026-04-25 21:03 59.35319 -6.87672 36263 ft 474 kts 117°
2026-04-25 21:03 59.32671 -6.75841 36266 ft 474 kts 117°
2026-04-25 21:04 59.30012 -6.64024 36257 ft 474 kts 117°
2026-04-25 21:04 59.27343 -6.52234 36259 ft 474 kts 117°
2026-04-25 21:05 59.24666 -6.40472 36256 ft 474 kts 117°
2026-04-25 21:05 59.21991 -6.28785 36250 ft 475 kts 117°
2026-04-25 21:06 59.19360 -6.16929 36257 ft 476 kts 116°
2026-04-25 21:06 59.16725 -6.05105 36255 ft 475 kts 117°
2026-04-25 21:07 59.14077 -5.93347 36244 ft 473 kts 117°
2026-04-25 21:07 59.11444 -5.81671 36250 ft 478 kts 117°
2026-04-25 21:08 59.08722 -5.69705 36256 ft 489 kts 117°
2026-04-25 21:08 59.05940 -5.57512 36270 ft 498 kts 117°
2026-04-25 21:09 59.01696 -5.39061 36661 ft 498 kts 117°
2026-04-25 21:09 59.00278 -5.32936 36862 ft 498 kts 117°
2026-04-25 21:09 58.98873 -5.26884 37039 ft 499 kts 117°
2026-04-25 21:10 58.97448 -5.20759 37253 ft 499 kts 117°
2026-04-25 21:10 58.96020 -5.14638 37463 ft 499 kts 117°
2026-04-25 21:10 58.94588 -5.08519 37639 ft 499 kts 117°
2026-04-25 21:10 58.93150 -5.02398 37763 ft 501 kts 117°
2026-04-25 21:11 58.91706 -4.96261 37958 ft 501 kts 117°
2026-04-25 21:11 58.90259 -4.90127 38160 ft 500 kts 117°
2026-04-25 21:11 58.88812 -4.84015 38382 ft 500 kts 117°
2026-04-25 21:11 58.87363 -4.77912 38610 ft 500 kts 117°
2026-04-25 21:12 58.85911 -4.71812 38826 ft 499 kts 117°
2026-04-25 21:12 58.84458 -4.65726 39020 ft 499 kts 117°
2026-04-25 21:12 58.83003 -4.59646 39194 ft 498 kts 117°
2026-04-25 21:12 58.82040 -4.55633 39271 ft 499 kts 117°
2026-04-25 21:13 58.78617 -4.41430 39268 ft 504 kts 117°
2026-04-25 21:13 58.75652 -4.29199 39275 ft 504 kts 117°
2026-04-25 21:14 58.72669 -4.16964 39284 ft 504 kts 117°
2026-04-25 21:14 58.69682 -4.04778 39280 ft 503 kts 117°
2026-04-25 21:15 58.66690 -3.92641 39287 ft 502 kts 117°
2026-04-25 21:15 58.63727 -3.80687 39288 ft 501 kts 118°
2026-04-25 21:16 58.60724 -3.68641 39303 ft 501 kts 118°
2026-04-25 21:16 58.57696 -3.56558 39316 ft 504 kts 118°
2026-04-25 21:17 58.54670 -3.44546 39322 ft 504 kts 118°
2026-04-25 21:17 58.51616 -3.32491 39316 ft 502 kts 118°
2026-04-25 21:18 58.48566 -3.20520 39314 ft 501 kts 118°
2026-04-25 21:18 58.45652 -3.08417 39344 ft 504 kts 109°
2026-04-25 21:19 58.43664 -2.95508 39326 ft 508 kts 108°
2026-04-25 21:19 58.41696 -2.82587 39329 ft 506 kts 109°
2026-04-25 21:20 58.40370 -2.74060 39322 ft 506 kts 109°
2026-04-25 21:20 58.37710 -2.56921 39326 ft 507 kts 109°
2026-04-25 21:21 58.35687 -2.44057 39316 ft 508 kts 109°
2026-04-25 21:21 58.33650 -2.31154 39318 ft 510 kts 109°
2026-04-25 21:22 58.31594 -2.18256 39322 ft 510 kts 109°
2026-04-25 21:22 58.29525 -2.05362 39325 ft 510 kts 109°
2026-04-25 21:23 58.27457 -1.92571 39326 ft 510 kts 109°
2026-04-25 21:23 58.25361 -1.79707 39327 ft 511 kts 109°
2026-04-25 21:24 58.23246 -1.66812 39331 ft 512 kts 109°
2026-04-25 21:24 58.21116 -1.53930 39330 ft 511 kts 109°
2026-04-25 21:25 58.18977 -1.41078 39315 ft 511 kts 109°
2026-04-25 21:25 58.16846 -1.28374 39315 ft 508 kts 109°
2026-04-25 21:26 58.14689 -1.15607 39317 ft 511 kts 109°
2026-04-25 21:26 58.12503 -1.02752 39321 ft 514 kts 109°
2026-04-25 21:27 58.10304 -0.89914 39324 ft 512 kts 109°
2026-04-25 21:27 58.08098 -0.77125 39322 ft 511 kts 109°
2026-04-25 21:28 58.05882 -0.64371 39320 ft 511 kts 109°
2026-04-25 21:28 58.03671 -0.51735 39320 ft 511 kts 109°
2026-04-25 21:29 58.01426 -0.38994 39320 ft 512 kts 109°
2026-04-25 21:29 57.99164 -0.26239 39324 ft 514 kts 110°
2026-04-25 21:30 57.96879 -0.13449 39327 ft 514 kts 110°
2026-04-25 21:30 57.94977 -0.02867 39326 ft 513 kts 110°
2026-04-25 21:31 57.92302 0.11917 39317 ft 516 kts 110°
2026-04-25 21:31 57.89971 0.24629 39310 ft 512 kts 113°
2026-04-25 21:32 57.88387 0.30581 39346 ft 510 kts 125°
2026-04-25 21:32 57.86231 0.35844 39349 ft 509 kts 135°
2026-04-25 21:32 57.81374 0.45537 39325 ft 510 kts 135°
2026-04-25 21:33 57.76497 0.55176 39321 ft 509 kts 134°
2026-04-25 21:33 57.71636 0.64796 39322 ft 510 kts 134°
2026-04-25 21:34 57.66748 0.74391 39325 ft 514 kts 134°
2026-04-25 21:34 57.61832 0.84029 39320 ft 510 kts 135°
2026-04-25 21:35 57.56934 0.93571 39317 ft 509 kts 135°
2026-04-25 21:35 57.52028 1.03102 39318 ft 510 kts 135°
2026-04-25 21:36 57.47117 1.12596 39317 ft 510 kts 135°
2026-04-25 21:36 57.42195 1.22075 39319 ft 510 kts 134°
2026-04-25 21:37 57.38917 1.28365 39321 ft 515 kts 135°
2026-04-25 21:37 57.32293 1.41026 39314 ft 511 kts 135°
2026-04-25 21:38 57.27336 1.50452 39311 ft 511 kts 135°
2026-04-25 21:38 57.22369 1.59861 39310 ft 512 kts 135°
2026-04-25 21:39 57.17390 1.69254 39312 ft 512 kts 135°
2026-04-25 21:39 57.12430 1.78571 39319 ft 513 kts 135°
2026-04-25 21:40 57.07402 1.87981 39312 ft 516 kts 135°
2026-04-25 21:40 57.02385 1.97329 39310 ft 513 kts 135°
2026-04-25 21:41 56.97367 2.06636 39324 ft 513 kts 135°
2026-04-25 21:41 56.92340 2.15937 39313 ft 514 kts 135°
2026-04-25 21:42 56.87322 2.25166 39305 ft 515 kts 135°
2026-04-25 21:42 56.82259 2.34452 39306 ft 515 kts 135°
2026-04-25 21:43 56.77181 2.43723 39284 ft 517 kts 135°
2026-04-25 21:43 56.72091 2.52980 39287 ft 517 kts 135°
2026-04-25 21:44 56.67028 2.62148 39286 ft 517 kts 135°
2026-04-25 21:45 56.59370 2.75949 39290 ft 517 kts 135°
2026-04-25 21:45 56.54253 2.85123 39279 ft 517 kts 135°
2026-04-25 21:46 56.49145 2.94246 39284 ft 517 kts 135°
2026-04-25 21:46 56.44022 3.03358 39287 ft 521 kts 135°
2026-04-25 21:47 56.38856 3.12509 39289 ft 519 kts 135°
2026-04-25 21:47 56.33702 3.21605 39257 ft 518 kts 135°
2026-04-25 21:48 56.28542 3.30671 39258 ft 518 kts 135°
2026-04-25 21:48 56.23391 3.39688 39256 ft 515 kts 135°
2026-04-25 21:49 56.18275 3.48611 39266 ft 519 kts 135°
2026-04-25 21:49 56.13573 3.58179 39266 ft 522 kts 129°
2026-04-25 21:50 56.08885 3.68088 39274 ft 521 kts 130°
2026-04-25 21:50 56.04167 3.77900 39269 ft 519 kts 130°
2026-04-25 21:51 55.99503 3.87640 39280 ft 519 kts 130°
2026-04-25 21:51 55.94786 3.97397 39296 ft 520 kts 130°
2026-04-25 21:52 55.90031 4.07227 39289 ft 526 kts 130°
2026-04-25 21:52 55.85320 4.16906 39284 ft 525 kts 130°
2026-04-25 21:53 55.81348 4.25046 39283 ft 523 kts 130°
2026-04-25 21:53 55.75797 4.36371 39274 ft 522 kts 130°
2026-04-25 21:54 55.71010 4.46097 39276 ft 524 kts 130°
2026-04-25 21:54 55.67009 4.54191 39269 ft 526 kts 130°
2026-04-25 21:55 55.62177 4.63936 39276 ft 527 kts 130°
2026-04-25 21:55 55.57336 4.73656 39265 ft 526 kts 130°
2026-04-25 21:56 55.52499 4.83330 39270 ft 526 kts 130°
2026-04-25 21:56 55.47648 4.92992 39272 ft 526 kts 130°
2026-04-25 21:57 55.42799 5.02614 39274 ft 525 kts 130°
2026-04-25 21:57 55.37978 5.12138 39258 ft 523 kts 130°
2026-04-25 21:58 55.33130 5.21681 39258 ft 523 kts 130°
2026-04-25 21:58 55.28280 5.31188 39257 ft 523 kts 130°
2026-04-25 21:59 55.23418 5.40683 39264 ft 524 kts 131°
2026-04-25 21:59 55.18542 5.50165 39277 ft 524 kts 130°
2026-04-25 22:00 55.11195 5.64385 39268 ft 527 kts 131°
2026-04-25 22:00 55.06306 5.73798 39268 ft 524 kts 131°
2026-04-25 22:01 55.01397 5.83217 39271 ft 525 kts 131°
2026-04-25 22:01 54.97098 5.90675 39262 ft 526 kts 135°
2026-04-25 22:02 54.90904 6.00816 39278 ft 527 kts 135°
2026-04-25 22:02 54.85531 6.09598 39257 ft 532 kts 135°
2026-04-25 22:03 54.80152 6.18340 39242 ft 528 kts 135°
2026-04-25 22:03 54.74794 6.27029 39250 ft 528 kts 135°
2026-04-25 22:04 54.69431 6.35685 39244 ft 527 kts 135°
2026-04-25 22:04 54.64096 6.44267 39246 ft 527 kts 136°
2026-04-25 22:05 54.58706 6.52902 39257 ft 531 kts 135°
2026-04-25 22:05 54.53273 6.61574 39248 ft 531 kts 136°
2026-04-25 22:06 54.47847 6.70201 39243 ft 531 kts 136°
2026-04-25 22:06 54.42416 6.78805 39246 ft 531 kts 136°
2026-04-25 22:07 54.37896 6.85941 39241 ft 531 kts 136°
2026-04-25 22:07 54.31565 6.95897 39246 ft 533 kts 136°
2026-04-25 22:08 54.25978 7.04300 39242 ft 535 kts 140°
2026-04-25 22:08 54.20118 7.12081 39248 ft 533 kts 140°
2026-04-25 22:09 54.14527 7.20384 39249 ft 533 kts 136°
2026-04-25 22:09 54.09045 7.28923 39248 ft 534 kts 135°
2026-04-25 22:10 54.03676 7.37547 39247 ft 535 kts 135°
2026-04-25 22:10 53.98285 7.46292 39232 ft 537 kts 135°
2026-04-25 22:11 53.92891 7.55043 39230 ft 535 kts 135°
2026-04-25 22:11 53.87516 7.63747 39212 ft 533 kts 135°
2026-04-25 22:12 53.82149 7.72420 39215 ft 534 kts 135°
2026-04-25 22:12 53.77655 7.79671 39208 ft 535 kts 135°
2026-04-25 22:13 53.71388 7.89759 39210 ft 539 kts 135°
2026-04-25 22:13 53.65954 7.98486 39207 ft 538 kts 135°
2026-04-25 22:14 53.60535 8.07166 39203 ft 536 kts 135°
2026-04-25 22:14 53.55134 8.15800 39194 ft 536 kts 135°
2026-04-25 22:15 53.49715 8.24444 39196 ft 538 kts 135°
2026-04-25 22:16 53.41581 8.37388 39197 ft 540 kts 135°
2026-04-25 22:16 53.36139 8.46021 39188 ft 538 kts 135°
2026-04-25 22:17 53.30701 8.54631 39188 ft 538 kts 135°
2026-04-25 22:17 53.25257 8.63229 39191 ft 538 kts 135°
2026-04-25 22:18 53.19813 8.71811 39242 ft 539 kts 135°
2026-04-25 22:18 53.14324 8.80447 39222 ft 546 kts 135°
2026-04-25 22:19 53.08830 8.89073 39219 ft 546 kts 135°
2026-04-25 22:19 53.03340 8.97670 39206 ft 533 kts 135°
2026-04-25 22:20 52.98010 9.05992 39194 ft 524 kts 135°
2026-04-25 22:20 52.92675 9.14312 39213 ft 528 kts 135°
2026-04-25 22:21 52.87299 9.22686 39189 ft 531 kts 135°
2026-04-25 22:21 52.81946 9.31002 39174 ft 527 kts 135°
2026-04-25 22:22 52.76630 9.39245 38885 ft 531 kts 135°
2026-04-25 22:22 52.73951 9.43393 38319 ft 526 kts 135°
2026-04-25 22:22 52.71290 9.47509 37754 ft 521 kts 135°
2026-04-25 22:22 52.68652 9.51583 37208 ft 517 kts 135°
2026-04-25 22:23 52.66036 9.55619 36656 ft 513 kts 135°
2026-04-25 22:23 52.63442 9.59619 36137 ft 510 kts 136°
2026-04-25 22:23 52.60855 9.63605 35629 ft 510 kts 136°
2026-04-25 22:23 52.58265 9.67593 35139 ft 511 kts 136°
2026-04-25 22:24 52.55681 9.71527 34690 ft 516 kts 140°
2026-04-25 22:24 52.52762 9.75044 34238 ft 527 kts 148°
2026-04-25 22:24 52.49587 9.78189 33696 ft 536 kts 151°
2026-04-25 22:24 52.46329 9.81133 33137 ft 533 kts 153°
2026-04-25 22:25 52.43057 9.83967 32577 ft 529 kts 153°
2026-04-25 22:25 52.39815 9.86723 32024 ft 524 kts 154°
2026-04-25 22:25 52.36589 9.89446 31476 ft 519 kts 154°
2026-04-25 22:25 52.33389 9.92142 30913 ft 515 kts 154°
2026-04-25 22:26 52.30220 9.94815 30401 ft 510 kts 154°
2026-04-25 22:26 52.27083 9.97477 29819 ft 508 kts 154°
2026-04-25 22:26 52.23956 10.00140 29189 ft 505 kts 154°
2026-04-25 22:26 52.20913 10.02975 28594 ft 502 kts 148°
2026-04-25 22:27 52.18013 10.06124 27993 ft 499 kts 146°
2026-04-25 22:27 52.15231 10.09338 27424 ft 495 kts 144°
2026-04-25 22:27 52.12456 10.12623 26896 ft 491 kts 144°
2026-04-25 22:27 52.09712 10.15904 26350 ft 487 kts 144°
2026-04-25 22:28 52.07002 10.19153 25955 ft 480 kts 144°
2026-04-25 22:28 52.04338 10.22349 25613 ft 474 kts 144°
2026-04-25 22:28 52.01691 10.25522 25265 ft 472 kts 144°
2026-04-25 22:28 51.99045 10.28692 24919 ft 473 kts 144°
2026-04-25 22:29 51.96403 10.31855 24586 ft 472 kts 144°
2026-04-25 22:29 51.93754 10.35025 24201 ft 474 kts 144°
2026-04-25 22:29 51.91097 10.38197 23739 ft 474 kts 144°
2026-04-25 22:30 51.86239 10.45158 22682 ft 463 kts 126°
2026-04-25 22:30 51.84399 10.49397 22168 ft 458 kts 121°
2026-04-25 22:30 51.82739 10.53766 21655 ft 455 kts 118°
2026-04-25 22:30 51.81687 10.56682 21318 ft 453 kts 117°
2026-04-25 22:31 51.79655 10.62454 20977 ft 437 kts 117°
2026-04-25 22:31 51.78187 10.66672 20963 ft 425 kts 117°
2026-04-25 22:31 51.76756 10.70798 20808 ft 419 kts 117°
2026-04-25 22:31 51.75336 10.74907 20436 ft 420 kts 116°
2026-04-25 22:32 51.73948 10.79049 20141 ft 419 kts 115°
2026-04-25 22:32 51.72598 10.83205 19870 ft 417 kts 115°
2026-04-25 22:32 51.71269 10.87346 19603 ft 415 kts 115°
2026-04-25 22:32 51.69947 10.91482 19330 ft 414 kts 115°
2026-04-25 22:33 51.68633 10.95595 19070 ft 413 kts 115°
2026-04-25 22:33 51.67321 10.99702 18838 ft 411 kts 115°
2026-04-25 22:33 51.66015 11.03787 18570 ft 410 kts 115°
2026-04-25 22:33 51.64730 11.07804 18328 ft 408 kts 115°
2026-04-25 22:34 51.63432 11.11860 18069 ft 407 kts 115°
2026-04-25 22:34 51.62139 11.15897 17806 ft 405 kts 115°
2026-04-25 22:34 51.60848 11.19926 17463 ft 407 kts 115°
2026-04-25 22:34 51.59555 11.23958 17243 ft 405 kts 115°
2026-04-25 22:35 51.58268 11.27968 16996 ft 403 kts 115°
2026-04-25 22:35 51.56983 11.31971 16768 ft 402 kts 115°
2026-04-25 22:35 51.55711 11.35928 16753 ft 394 kts 115°
2026-04-25 22:35 51.54463 11.39802 16748 ft 387 kts 115°
2026-04-25 22:36 51.53257 11.43613 16723 ft 377 kts 113°
2026-04-25 22:36 51.52189 11.47283 16652 ft 348 kts 108°
2026-04-25 22:36 51.51574 11.50831 16599 ft 325 kts 94°
2026-04-25 22:36 51.51444 11.54392 16567 ft 316 kts 79°
2026-04-25 22:37 51.51650 11.57876 16543 ft 313 kts 77°
2026-04-25 22:37 51.51856 11.61350 16531 ft 311 kts 78°
2026-04-25 22:37 51.52032 11.64820 16283 ft 314 kts 78°
2026-04-25 22:37 51.52203 11.68316 16190 ft 314 kts 78°
2026-04-25 22:38 51.52378 11.71789 16243 ft 308 kts 78°
2026-04-25 22:38 51.52549 11.75159 16287 ft 297 kts 77°
2026-04-25 22:38 51.52720 11.78470 16061 ft 298 kts 77°
2026-04-25 22:38 51.52890 11.81787 15872 ft 297 kts 77°
2026-04-25 22:39 51.53054 11.85091 15681 ft 297 kts 78°
2026-04-25 22:39 51.53215 11.88339 15434 ft 296 kts 78°
2026-04-25 22:39 51.53377 11.91624 15058 ft 295 kts 78°
2026-04-25 22:39 51.53539 11.94906 14694 ft 294 kts 78°
2026-04-25 22:40 51.53698 11.98162 14336 ft 292 kts 78°
2026-04-25 22:40 51.53856 12.01410 13986 ft 291 kts 78°
2026-04-25 22:40 51.54012 12.04636 13622 ft 289 kts 78°
2026-04-25 22:40 51.54166 12.07848 13258 ft 288 kts 78°
2026-04-25 22:41 51.54319 12.11044 12894 ft 286 kts 78°
2026-04-25 22:41 51.54471 12.14238 12504 ft 288 kts 78°
2026-04-25 22:41 51.54621 12.17397 12171 ft 287 kts 78°
2026-04-25 22:41 51.54769 12.20579 11797 ft 285 kts 78°
2026-04-25 22:42 51.54916 12.23739 11362 ft 282 kts 78°
2026-04-25 22:42 51.55062 12.26879 10864 ft 281 kts 78°
2026-04-25 22:42 51.55207 12.29993 10399 ft 279 kts 79°
2026-04-25 22:42 51.55349 12.33091 9939 ft 277 kts 79°
2026-04-25 22:43 51.55488 12.36167 9457 ft 275 kts 79°
2026-04-25 22:43 51.55626 12.39218 8992 ft 273 kts 79°
2026-04-25 22:43 51.55763 12.42245 8547 ft 270 kts 79°
2026-04-25 22:43 51.55891 12.45182 8376 ft 257 kts 79°
2026-04-25 22:44 51.56019 12.48039 7993 ft 256 kts 78°
2026-04-25 22:44 51.56149 12.50885 7642 ft 254 kts 79°
2026-04-25 22:44 51.56272 12.53674 7303 ft 252 kts 79°
2026-04-25 22:44 51.56393 12.56466 6918 ft 250 kts 79°
2026-04-25 22:45 51.56515 12.59245 6542 ft 248 kts 79°
2026-04-25 22:45 51.56635 12.62008 6135 ft 247 kts 79°
2026-04-25 22:45 51.56753 12.64757 5738 ft 246 kts 79°
2026-04-25 22:45 51.56871 12.67491 5334 ft 245 kts 79°
2026-04-25 22:46 51.56987 12.70220 4999 ft 245 kts 79°
2026-04-25 22:46 51.57101 12.72936 4799 ft 243 kts 79°
2026-04-25 22:46 51.57165 12.75640 4573 ft 245 kts 89°
2026-04-25 22:46 51.56439 12.78151 4401 ft 254 kts 135°
2026-04-25 22:47 51.54967 12.79435 4312 ft 236 kts 175°
2026-04-25 22:47 51.53371 12.79459 3851 ft 228 kts 193°
2026-04-25 22:47 51.51805 12.79190 3475 ft 224 kts 194°
2026-04-25 22:47 51.50333 12.78565 3188 ft 214 kts 216°
2026-04-25 22:48 51.49244 12.77102 2986 ft 198 kts 234°
2026-04-25 22:48 51.48274 12.75522 2998 ft 201 kts 234°
2026-04-25 22:48 51.47295 12.73895 2994 ft 203 kts 234°
2026-04-25 22:48 51.46317 12.72261 3001 ft 204 kts 234°
2026-04-25 22:49 51.45475 12.70494 2948 ft 192 kts 258°
2026-04-25 22:49 51.45347 12.68471 2991 ft 187 kts 272°
2026-04-25 22:49 51.45208 12.66390 2997 ft 186 kts 272°
2026-04-25 22:49 51.45113 12.64327 3003 ft 186 kts 272°
2026-04-25 22:50 51.45017 12.62249 3005 ft 187 kts 272°
2026-04-25 22:50 51.44921 12.60172 3009 ft 186 kts 272°
2026-04-25 22:50 51.44826 12.58112 3005 ft 186 kts 272°
2026-04-25 22:50 51.44730 12.56035 2999 ft 187 kts 273°
2026-04-25 22:51 51.44633 12.53973 3003 ft 186 kts 274°
2026-04-25 22:51 51.44538 12.51909 3009 ft 186 kts 273°
2026-04-25 22:51 51.44440 12.49852 3012 ft 189 kts 273°
2026-04-25 22:51 51.44340 12.47828 2999 ft 173 kts 273°
2026-04-25 22:52 51.44247 12.45996 2889 ft 159 kts 274°
2026-04-25 22:52 51.44172 12.44329 2682 ft 141 kts 276°
2026-04-25 22:52 51.44101 12.42778 2504 ft 140 kts 276°
2026-04-25 22:52 51.44056 12.41748 2382 ft 140 kts 275°
2026-04-25 22:53 51.43961 12.39658 2128 ft 140 kts 275°
2026-04-25 22:53 51.43913 12.38102 1939 ft 139 kts 275°
2026-04-25 22:53 51.43848 12.36551 1763 ft 140 kts 273°
2026-04-25 22:53 51.43773 12.35008 1613 ft 141 kts 272°
2026-04-25 22:54 51.43698 12.33414 1435 ft 146 kts 272°
2026-04-25 22:54 51.43613 12.31791 1136 ft 147 kts 270°
2026-04-25 22:54 51.43520 12.30176 939 ft 145 kts 270°
2026-04-25 22:54 51.43439 12.28570 733 ft 145 kts 272°
2026-04-25 22:55 51.43371 12.26958 534 ft 145 kts 272°
2026-04-25 22:55 51.43305 12.25446 463 ft 113 kts 266°
2026-04-25 22:55 51.43259 12.24456 452 ft 68 kts 266°
2026-04-25 22:55 51.43197 12.23826 453 ft 49 kts 246°
2026-04-25 22:56 51.43080 12.23520 453 ft 6 kts 236°
2026-04-25 22:56 51.43078 12.23517 453 ft 0 kts 236°
2026-04-25 22:56 51.43070 12.23498 438 ft 6 kts 230°
2026-04-25 22:56 51.43063 12.23487 432 ft 1 kts 224°
2026-04-25 22:57 51.43024 12.23450 451 ft 12 kts 200°
2026-04-25 22:57 51.42926 12.23429 436 ft 16 kts 202°
2026-04-25 22:57 51.42891 12.23282 444 ft 14 kts 268°
2026-04-25 22:57 51.42886 12.23124 433 ft 15 kts 265°
2026-04-25 22:58 51.42878 12.22953 433 ft 16 kts 266°
2026-04-25 22:58 51.42871 12.22784 434 ft 15 kts 266°
2026-04-25 22:58 51.42862 12.22623 434 ft 15 kts 264°
2026-04-25 22:58 51.42852 12.22445 442 ft 17 kts 266°
2026-04-25 22:59 51.42845 12.22258 430 ft 17 kts 266°
2026-04-25 22:59 51.42837 12.22061 439 ft 19 kts 266°
2026-04-25 22:59 51.42825 12.21843 429 ft 18 kts 265°
2026-04-25 22:59 51.42817 12.21666 433 ft 17 kts 266°
2026-04-25 23:00 51.42809 12.21471 435 ft 17 kts 266°
2026-04-25 23:00 51.42796 12.21290 422 ft 15 kts 248°
2026-04-25 23:00 51.42719 12.21215 430 ft 12 kts 195°
2026-04-25 23:00 51.42642 12.21182 438 ft 10 kts 195°
2026-04-25 23:01 51.42572 12.21152 447 ft 12 kts 195°
2026-04-25 23:01 51.42469 12.21106 448 ft 19 kts 197°
2026-04-25 23:01 51.42316 12.21039 437 ft 27 kts 196°
2026-04-25 23:01 51.42113 12.20945 427 ft 32 kts 196°
2026-04-25 23:02 51.41974 12.21031 429 ft 21 kts 104°
2026-04-25 23:02 51.41939 12.21247 427 ft 19 kts 104°
2026-04-25 23:02 51.41906 12.21449 429 ft 18 kts 105°
2026-04-25 23:02 51.41874 12.21639 436 ft 17 kts 105°
2026-04-25 23:03 51.41843 12.21821 448 ft 17 kts 105°
2026-04-25 23:03 51.41825 12.21982 451 ft 8 kts 72°
2026-04-25 23:03 51.41845 12.22007 451 ft 3 kts 17°
2026-04-25 23:03 51.41873 12.22019 449 ft 6 kts 15°
2026-04-25 23:04 51.41896 12.22029 448 ft 2 kts 15°
2026-04-25 23:04 51.41900 12.22031 448 ft 0 kts 15°